Time;durP1;ratioP1;P1;durP2;ratioP2;P2;SDS_P1;SDS_P2;PMS_P1;PMS_P2;Temp;Humidity;BMP_temperature;BMP_pressure;BME280_temperature;BME280_humidity;BME280_pressure;Samples;Min_cycle;Max_cycle;Signal;HPM_P1;HPM_P2
2021/05/18 00:00:36;;;;;;;11.82;6.35;;;10.60;99.90;;;;;;5057273;28;20052;-74
2021/05/18 00:03:02;;;;;;;7.10;6.35;;;10.60;99.90;;;;;;5057255;28;20033;-74
2021/05/18 00:05:28;;;;;;;7.80;6.63;;;10.60;99.90;;;;;;5055022;28;20029;-74
2021/05/18 00:13:05;;;;;;;7.90;7.20;;;10.50;99.90;;;;;;5066247;28;20036;-74
2021/05/18 00:15:32;;;;;;;8.73;6.18;;;10.40;99.90;;;;;;5059571;28;20075;-74
2021/05/18 00:17:58;;;;;;;8.07;7.28;;;10.40;99.90;;;;;;5064154;28;20044;-74
2021/05/18 00:20:42;;;;;;;8.75;7.65;;;10.40;99.90;;;;;;5064427;28;20051;-73
2021/05/18 00:23:09;;;;;;;9.75;7.93;;;10.40;99.90;;;;;;5062038;28;20506;-73
2021/05/18 00:25:35;;;;;;;13.48;8.57;;;10.40;99.90;;;;;;5060138;28;20033;-73
2021/05/18 00:28:01;;;;;;;8.50;7.70;;;10.40;99.90;;;;;;5062893;28;20112;-73
2021/05/18 00:30:27;;;;;;;11.70;8.32;;;10.30;99.90;;;;;;5060069;28;20130;-73
2021/05/18 00:32:53;;;;;;;11.85;8.55;;;10.30;99.90;;;;;;5061329;28;20047;-73
2021/05/18 00:35:19;;;;;;;14.98;9.70;;;10.30;99.90;;;;;;5063376;28;20032;-73
2021/05/18 00:37:45;;;;;;;10.90;8.57;;;10.40;99.90;;;;;;5057322;28;20044;-73
2021/05/18 00:40:15;;;;;;;12.35;8.60;;;10.30;99.90;;;;;;5061595;28;20056;-73
2021/05/18 00:42:54;;;;;;;12.48;8.75;;;10.30;99.90;;;;;;5059126;28;20045;-74
2021/05/18 00:45:36;;;;;;;9.05;8.07;;;10.30;99.90;;;;;;5062972;28;20041;-74
2021/05/18 00:48:03;;;;;;;9.27;7.63;;;10.30;99.90;;;;;;5065029;28;20087;-74
2021/05/18 00:50:29;;;;;;;9.13;8.23;;;10.30;99.90;;;;;;5058346;28;20114;-74
2021/05/18 00:52:55;;;;;;;11.50;8.95;;;10.30;99.90;;;;;;5060342;28;20051;-74
2021/05/18 01:00:37;;;;;;;13.35;8.13;;;10.30;99.90;;;;;;5059425;28;20070;-73
2021/05/18 01:03:04;;;;;;;11.90;8.48;;;10.30;99.90;;;;;;5062291;28;20035;-73
2021/05/18 01:08:14;;;;;;;12.95;8.27;;;10.30;99.90;;;;;;5058338;28;20033;-73
2021/05/18 01:10:40;;;;;;;10.07;8.50;;;10.20;99.90;;;;;;5064187;28;20613;-73
2021/05/18 01:13:06;;;;;;;12.65;8.40;;;10.10;99.90;;;;;;5059684;28;20033;-73
2021/05/18 01:15:32;;;;;;;8.70;7.80;;;10.10;99.90;;;;;;5059731;28;20037;-73
2021/05/18 01:17:58;;;;;;;9.32;7.65;;;10.10;99.90;;;;;;5064714;28;20037;-73
2021/05/18 01:20:24;;;;;;;10.93;8.30;;;10.10;99.90;;;;;;5061086;28;20048;-73
2021/05/18 01:22:50;;;;;;;8.73;7.85;;;10.10;99.90;;;;;;5058969;28;20467;-73
2021/05/18 01:25:19;;;;;;;14.52;8.93;;;10.00;99.90;;;;;;5059589;28;20086;-73
2021/05/18 01:27:45;;;;;;;7.72;6.65;;;10.00;99.90;;;;;;5062542;28;20457;-73
2021/05/18 01:30:12;;;;;;;8.27;6.68;;;10.00;99.90;;;;;;5061817;28;20064;-73
2021/05/18 01:32:40;;;;;;;7.95;7.15;;;10.00;99.90;;;;;;5059102;28;20109;-73
2021/05/18 01:35:07;;;;;;;9.88;8.10;;;10.00;99.90;;;;;;5059217;28;20063;-73
2021/05/18 01:37:34;;;;;;;9.70;8.80;;;10.00;99.90;;;;;;5060116;28;20044;-73
2021/05/18 01:42:52;;;;;;;10.07;8.00;;;9.90;99.90;;;;;;5060210;28;20037;-73
2021/05/18 01:45:21;;;;;;;10.40;8.73;;;9.80;99.90;;;;;;5056728;28;20049;-73
2021/05/18 01:47:55;;;;;;;10.57;8.57;;;9.80;99.90;;;;;;5061772;28;20036;-73
2021/05/18 01:50:23;;;;;;;9.35;8.35;;;9.70;99.90;;;;;;5059367;28;20502;-73
2021/05/18 01:52:51;;;;;;;10.55;7.30;;;9.70;99.90;;;;;;5060993;28;20718;-73
2021/05/18 01:55:25;;;;;;;11.30;9.75;;;9.70;99.90;;;;;;5056705;28;20067;-73
2021/05/18 01:57:51;;;;;;;9.75;8.13;;;9.60;99.90;;;;;;5059162;28;20040;-73
2021/05/18 02:00:19;;;;;;;11.00;8.90;;;9.60;99.90;;;;;;5062905;28;20043;-73
2021/05/18 02:02:45;;;;;;;10.07;8.68;;;9.50;99.90;;;;;;5059540;28;20044;-74
2021/05/18 02:05:13;;;;;;;12.15;8.77;;;9.40;99.90;;;;;;5059926;28;20051;-73
2021/05/18 02:07:42;;;;;;;10.45;8.18;;;9.30;99.90;;;;;;5057027;28;20040;-73
2021/05/18 02:10:14;;;;;;;9.43;8.10;;;9.30;99.90;;;;;;5056306;28;20044;-73
2021/05/18 02:12:40;;;;;;;10.05;8.35;;;9.20;99.90;;;;;;5058797;28;20066;-73
2021/05/18 02:15:26;;;;;;;10.88;8.63;;;9.30;99.90;;;;;;5059430;28;20032;-73
2021/05/18 02:20:50;;;;;;;8.52;6.93;;;9.10;99.90;;;;;;5061272;28;20437;-73
2021/05/18 02:26:00;;;;;;;9.23;7.80;;;9.10;99.90;;;;;;5059437;28;20470;-73
2021/05/18 02:28:28;;;;;;;9.63;8.60;;;9.00;99.90;;;;;;5060307;28;20028;-72
2021/05/18 02:30:55;;;;;;;10.32;8.52;;;9.00;99.90;;;;;;5064026;28;20037;-73
2021/05/18 02:33:21;;;;;;;10.20;9.07;;;9.00;99.90;;;;;;5057663;28;20037;-73
2021/05/18 02:35:47;;;;;;;10.27;9.23;;;9.00;99.90;;;;;;5065331;28;20087;-73
2021/05/18 02:38:13;;;;;;;14.15;10.55;;;8.90;99.90;;;;;;5062909;28;20040;-73
2021/05/18 02:40:41;;;;;;;14.80;11.07;;;8.90;99.90;;;;;;5061591;28;20991;-73
2021/05/18 02:43:10;;;;;;;11.57;10.32;;;8.80;99.90;;;;;;5063157;28;20090;-73
2021/05/18 02:51:05;;;;;;;14.23;10.45;;;8.70;99.90;;;;;;5062545;28;20758;-73
2021/05/18 02:53:30;;;;;;;14.48;11.35;;;8.70;99.90;;;;;;5068567;28;20048;-73
2021/05/18 02:58:24;;;;;;;15.10;11.60;;;8.60;99.90;;;;;;5070732;28;20041;-73
2021/05/18 03:00:50;;;;;;;15.15;11.35;;;8.50;99.90;;;;;;5066422;28;20529;-73
2021/05/18 03:03:16;;;;;;;13.63;10.73;;;8.60;99.90;;;;;;5066748;28;20048;-73
2021/05/18 03:05:43;;;;;;;14.60;10.82;;;8.50;99.90;;;;;;5068135;28;20474;-73
2021/05/18 03:08:09;;;;;;;12.95;10.18;;;8.50;99.90;;;;;;5068298;28;20045;-73
2021/05/18 03:10:35;;;;;;;12.63;10.20;;;8.50;99.90;;;;;;5067904;28;20438;-73
2021/05/18 03:13:02;;;;;;;9.63;8.68;;;8.40;99.90;;;;;;5069987;28;20131;-73
2021/05/18 03:15:29;;;;;;;11.27;9.90;;;8.40;99.90;;;;;;5066843;28;20029;-73
2021/05/18 03:17:55;;;;;;;11.20;8.93;;;8.40;99.90;;;;;;5060347;28;20036;-73
2021/05/18 03:20:21;;;;;;;11.10;9.93;;;8.30;99.90;;;;;;5060945;28;20047;-73
2021/05/18 03:22:47;;;;;;;11.25;8.02;;;8.30;99.90;;;;;;5058808;28;20122;-73
2021/05/18 03:25:15;;;;;;;11.23;9.60;;;8.30;99.90;;;;;;5060480;28;20044;-73
2021/05/18 03:27:42;;;;;;;16.00;10.05;;;8.30;99.90;;;;;;5057265;28;20048;-73
2021/05/18 03:30:20;;;;;;;17.75;12.10;;;8.30;99.90;;;;;;5058047;28;20086;-73
2021/05/18 03:35:31;;;;;;;13.95;9.93;;;8.20;99.90;;;;;;5057752;28;20044;-73
2021/05/18 03:37:59;;;;;;;7.82;7.03;;;8.10;99.90;;;;;;5056323;28;20048;-73
2021/05/18 03:40:27;;;;;;;15.40;11.07;;;8.20;99.90;;;;;;5060109;28;20047;-73
2021/05/18 03:43:08;;;;;;;12.60;11.30;;;8.20;99.90;;;;;;5056491;28;20556;-73
2021/05/18 03:45:39;;;;;;;13.73;9.63;;;8.10;99.90;;;;;;5059944;28;20479;-73
2021/05/18 04:04:21;;;;;;;12.55;11.18;;;8.30;99.90;;;;;;5057880;28;20036;-73
2021/05/18 04:12:42;;;;;;;12.38;10.43;;;8.40;99.90;;;;;;5058318;28;20040;-73
2021/05/18 04:20:56;;;;;;;12.43;10.68;;;8.60;99.90;;;;;;5058131;28;20063;-73
2021/05/18 04:23:22;;;;;;;13.10;10.70;;;8.80;99.90;;;;;;5058198;28;20163;-73
2021/05/18 04:50:33;;;;;;;10.50;9.40;;;11.10;99.90;;;;;;5060209;28;20067;-74
2021/05/18 05:01:12;;;;;;;11.65;9.80;;;11.50;99.90;;;;;;5062954;28;20093;-74
2021/05/18 05:16:22;;;;;;;11.65;9.50;;;11.30;99.90;;;;;;5055495;28;20036;-74
2021/05/18 05:18:48;;;;;;;12.68;9.88;;;11.30;99.90;;;;;;5054752;28;20052;-74
2021/05/18 05:21:13;;;;;;;12.57;9.68;;;11.30;99.90;;;;;;5053877;28;20052;-74
2021/05/18 05:23:39;;;;;;;10.90;9.00;;;11.30;99.90;;;;;;5058765;28;20079;-74
2021/05/18 05:26:05;;;;;;;11.48;8.88;;;11.30;99.90;;;;;;5053083;28;20036;-74
2021/05/18 05:28:31;;;;;;;9.80;8.80;;;11.30;99.90;;;;;;5057325;28;20033;-74
2021/05/18 05:30:56;;;;;;;11.38;9.93;;;11.30;99.90;;;;;;5058536;28;20044;-74
2021/05/18 05:33:22;;;;;;;10.43;9.32;;;11.30;99.90;;;;;;5055576;28;20033;-74
2021/05/18 05:35:49;;;;;;;10.48;8.85;;;11.30;99.90;;;;;;5055688;28;20028;-74
2021/05/18 05:38:18;;;;;;;10.35;9.27;;;11.30;99.90;;;;;;5054659;28;20121;-73
2021/05/18 05:40:43;;;;;;;11.32;9.23;;;11.10;99.90;;;;;;5054335;28;20127;-73
2021/05/18 05:43:09;;;;;;;12.57;9.90;;;11.30;99.90;;;;;;5057113;28;20233;-73
2021/05/18 05:45:35;;;;;;;10.65;9.05;;;11.30;99.90;;;;;;5054200;28;20039;-73
2021/05/18 05:48:01;;;;;;;10.18;8.45;;;11.30;99.90;;;;;;5056189;28;20040;-73
2021/05/18 05:50:26;;;;;;;11.13;9.05;;;11.40;99.90;;;;;;5053839;28;20643;-73
2021/05/18 05:52:52;;;;;;;9.38;8.45;;;11.40;99.90;;;;;;5057009;28;20166;-73
2021/05/18 05:55:18;;;;;;;10.18;9.18;;;11.50;99.90;;;;;;5053973;28;20040;-73
2021/05/18 05:57:45;;;;;;;13.20;9.95;;;11.50;99.90;;;;;;5053882;28;20068;-73
2021/05/18 06:00:12;;;;;;;9.98;9.00;;;11.50;99.90;;;;;;5055556;28;20058;-74
2021/05/18 06:02:38;;;;;;;11.30;9.13;;;11.50;99.90;;;;;;5060631;28;20127;-74
2021/05/18 06:05:05;;;;;;;10.77;9.07;;;11.50;99.90;;;;;;5060902;28;20047;-74
2021/05/18 06:07:31;;;;;;;12.93;9.82;;;11.50;99.90;;;;;;5051698;28;20172;-74
2021/05/18 06:10:02;;;;;;;11.63;9.68;;;11.50;99.90;;;;;;5057746;28;20146;-74
2021/05/18 06:15:29;;;;;;;14.50;9.75;;;11.50;99.90;;;;;;5050638;28;20476;-74
2021/05/18 06:47:31;;;;;;;13.00;10.38;;;11.80;99.90;;;;;;5050632;28;20041;-74
2021/05/18 06:52:46;;;;;;;12.63;10.43;;;11.90;99.90;;;;;;5050215;28;20452;-74
2021/05/18 06:55:19;;;;;;;12.05;10.88;;;11.90;99.90;;;;;;5049109;28;20040;-74
2021/05/18 06:57:49;;;;;;;11.50;9.68;;;11.90;99.90;;;;;;5049056;28;20490;-74
2021/05/18 07:00:19;;;;;;;14.43;9.60;;;12.00;99.50;;;;;;5051463;28;20457;-74
2021/05/18 07:02:47;;;;;;;13.95;10.13;;;11.90;99.60;;;;;;5050117;28;20644;-74
2021/05/18 07:05:53;;;;;;;11.65;10.45;;;12.00;99.90;;;;;;5050637;28;20067;-74
2021/05/18 07:10:32;;;;;;;10.45;9.38;;;12.10;99.80;;;;;;5048268;28;20488;-74
2021/05/18 07:12:58;;;;;;;12.02;10.73;;;12.20;99.50;;;;;;5053145;28;20050;-74
2021/05/18 07:15:28;;;;;;;11.23;10.13;;;12.20;99.90;;;;;;5054234;28;20047;-74
2021/05/18 07:17:55;;;;;;;11.45;10.30;;;12.30;99.90;;;;;;5052818;28;20140;-74
2021/05/18 07:20:20;;;;;;;11.10;9.27;;;12.40;99.90;;;;;;5048941;28;20090;-74
2021/05/18 07:22:47;;;;;;;9.15;8.25;;;12.60;99.90;;;;;;5047020;28;20037;-74
2021/05/18 07:25:13;;;;;;;11.13;8.55;;;12.70;99.30;;;;;;5048951;28;20041;-75
2021/05/18 07:27:38;;;;;;;10.90;8.65;;;12.70;98.90;;;;;;5048277;28;20079;-74
2021/05/18 07:30:05;;;;;;;8.70;7.60;;;12.70;99.30;;;;;;5049754;28;20479;-74
2021/05/18 07:32:31;;;;;;;8.52;7.07;;;12.90;98.80;;;;;;5050788;28;20410;-74
2021/05/18 07:34:56;;;;;;;8.00;6.75;;;12.90;98.00;;;;;;5048684;28;20044;-74
2021/05/18 07:37:23;;;;;;;7.57;6.88;;;13.10;98.00;;;;;;5050084;28;20516;-76
2021/05/18 07:39:49;;;;;;;8.77;7.05;;;13.10;98.20;;;;;;5076791;27;20047;-73
2021/05/18 07:42:15;;;;;;;6.20;5.50;;;13.20;98.20;;;;;;5053422;28;20067;-76
2021/05/18 07:44:41;;;;;;;9.35;6.20;;;13.40;96.80;;;;;;5052356;28;20666;-74
2021/05/18 07:47:07;;;;;;;8.75;6.57;;;13.40;96.30;;;;;;5053006;28;20040;-74
2021/05/18 07:49:37;;;;;;;6.75;5.97;;;13.50;96.60;;;;;;5053412;28;20048;-74
2021/05/18 08:05:33;;;;;;;6.28;4.60;;;14.00;96.00;;;;;;5052123;28;20072;-74
2021/05/18 08:07:59;;;;;;;6.43;4.13;;;14.10;96.00;;;;;;5050744;28;20116;-74
2021/05/18 08:12:54;;;;;;;4.70;4.20;;;14.20;94.10;;;;;;5053169;28;21510;-74
2021/05/18 08:20:34;;;;;;;4.88;3.90;;;14.50;95.20;;;;;;5050409;28;20055;-74
2021/05/18 10:22:39;;;;;;;3.55;3.22;;;14.80;95.80;;;;;;5050984;28;20048;-75
2021/05/18 10:38:49;;;;;;;6.50;4.53;;;15.20;95.40;;;;;;5054246;28;20039;-74
2021/05/18 10:41:24;;;;;;;4.95;4.40;;;15.30;94.50;;;;;;5056421;28;20044;-75
2021/05/18 10:43:58;;;;;;;5.30;4.40;;;15.20;94.10;;;;;;5054331;28;20459;-75
2021/05/18 10:46:29;;;;;;;6.65;4.13;;;15.20;94.80;;;;;;5052036;28;20056;-74
2021/05/18 10:48:59;;;;;;;15.00;5.50;;;15.10;94.90;;;;;;5054364;28;20557;-74
2021/05/18 10:51:44;;;;;;;8.25;3.10;;;14.90;95.50;;;;;;5052279;28;21965;-74
2021/05/18 10:54:23;;;;;;;4.83;3.47;;;14.60;96.00;;;;;;5053970;28;20131;-74
2021/05/18 10:56:55;;;;;;;3.67;3.38;;;14.30;96.30;;;;;;5053585;28;20299;-74
2021/05/18 10:59:25;;;;;;;5.13;4.60;;;14.10;96.90;;;;;;5054314;28;20048;-75
2021/05/18 11:02:00;;;;;;;6.70;5.75;;;14.00;97.90;;;;;;5078113;28;20717;-74
2021/05/18 11:04:31;;;;;;;5.47;4.97;;;13.90;97.90;;;;;;5055390;28;20396;-74
2021/05/18 11:07:01;;;;;;;6.80;5.05;;;13.80;97.50;;;;;;5052811;28;20059;-74
2021/05/18 11:09:28;;;;;;;6.60;5.30;;;13.70;97.90;;;;;;5056136;28;20040;-74
2021/05/18 11:12:11;;;;;;;6.32;5.75;;;13.80;98.30;;;;;;5052799;28;20486;-75
2021/05/18 11:14:38;;;;;;;6.13;5.00;;;13.80;98.50;;;;;;5055042;28;20045;-75
2021/05/18 11:17:16;;;;;;;5.70;5.20;;;13.80;98.50;;;;;;5054882;28;20096;-75
2021/05/18 11:19:48;;;;;;;7.07;5.65;;;13.70;98.70;;;;;;5056884;28;21991;-74
2021/05/18 11:22:18;;;;;;;6.07;5.47;;;13.80;98.90;;;;;;5059922;28;20079;-74
2021/05/18 11:24:48;;;;;;;6.40;5.80;;;13.90;98.60;;;;;;5055856;28;20044;-75
2021/05/18 11:27:24;;;;;;;7.78;6.15;;;14.00;98.30;;;;;;5055395;28;20091;-75
2021/05/18 11:29:49;;;;;;;6.90;6.25;;;14.10;98.70;;;;;;5057405;28;20045;-75
2021/05/18 11:32:15;;;;;;;7.93;5.68;;;14.30;98.00;;;;;;5055898;28;20075;-74
2021/05/18 11:34:57;;;;;;;6.00;5.40;;;14.30;98.10;;;;;;5059509;28;20044;-75
2021/05/18 11:37:27;;;;;;;6.30;5.70;;;14.50;97.70;;;;;;5054161;28;20040;-75
2021/05/18 11:40:15;;;;;;;4.47;4.10;;;14.70;98.00;;;;;;5056409;28;20084;-75
2021/05/18 11:42:41;;;;;;;6.63;5.65;;;15.30;97.30;;;;;;5056304;28;20545;-75
2021/05/18 11:45:16;;;;;;;5.32;4.82;;;15.80;95.50;;;;;;5057502;28;20037;-75
2021/05/18 11:47:44;;;;;;;4.72;4.32;;;16.10;94.30;;;;;;5055895;28;20487;-75
2021/05/18 11:50:26;;;;;;;4.63;4.22;;;16.30;93.70;;;;;;5054540;28;20036;-75
2021/05/18 11:52:54;;;;;;;5.57;4.75;;;16.50;93.50;;;;;;5052364;28;20123;-75
2021/05/18 11:55:30;;;;;;;5.45;3.80;;;16.70;93.00;;;;;;5057099;28;20109;-75
2021/05/18 11:57:57;;;;;;;4.82;4.43;;;16.80;92.10;;;;;;5055583;28;20044;-76
2021/05/18 12:00:43;;;;;;;3.13;1.92;;;16.70;92.60;;;;;;5056881;28;20047;-76
2021/05/18 12:03:11;;;;;;;3.50;2.10;;;16.60;92.20;;;;;;5052309;28;20099;-75
2021/05/18 12:05:56;;;;;;;3.42;2.60;;;16.30;92.50;;;;;;5053161;28;20048;-75
2021/05/18 12:08:37;;;;;;;3.10;2.03;;;16.00;92.90;;;;;;5052214;28;20043;-75
2021/05/18 12:11:19;;;;;;;2.78;1.63;;;15.70;92.40;;;;;;5049119;28;20036;-75
2021/05/18 12:13:51;;;;;;;11.93;2.22;;;15.50;93.10;;;;;;5055923;28;20114;-75
2021/05/18 12:16:22;;;;;;;8.15;3.17;;;15.10;93.70;;;;;;5052538;28;20040;-73
2021/05/18 12:18:56;;;;;;;9.50;3.30;;;14.90;94.30;;;;;;5052528;28;20123;-73
2021/05/18 12:21:28;;;;;;;9.48;3.95;;;14.60;94.30;;;;;;5049806;28;20055;-73
2021/05/18 12:24:15;;;;;;;6.60;3.30;;;14.10;94.70;;;;;;5051640;28;20040;-73
2021/05/18 12:26:51;;;;;;;4.75;2.83;;;13.70;95.60;;;;;;5052831;28;20040;-74
2021/05/18 12:29:29;;;;;;;7.30;2.92;;;13.50;96.00;;;;;;5052174;28;20041;-74
2021/05/18 12:32:16;;;;;;;5.53;3.03;;;13.40;96.30;;;;;;5054603;28;20906;-74
2021/05/18 12:34:42;;;;;;;4.03;2.85;;;13.30;96.50;;;;;;5057835;28;20134;-74
2021/05/18 12:37:08;;;;;;;5.18;3.45;;;13.20;96.90;;;;;;5056001;28;20033;-74
2021/05/18 12:39:37;;;;;;;5.13;3.17;;;13.20;97.20;;;;;;5051793;28;20068;-74
2021/05/18 12:42:06;;;;;;;3.47;3.13;;;13.20;97.20;;;;;;5052665;28;20037;-74
2021/05/18 12:44:51;;;;;;;3.70;3.40;;;13.20;97.20;;;;;;5051057;28;20028;-74
2021/05/18 12:47:39;;;;;;;4.33;3.77;;;13.20;97.70;;;;;;5050881;28;20060;-74
2021/05/18 12:50:08;;;;;;;7.18;3.63;;;13.20;98.20;;;;;;5054416;28;20306;-74
2021/05/18 12:52:40;;;;;;;4.30;3.90;;;13.30;98.30;;;;;;5054355;28;20380;-74
2021/05/18 12:55:25;;;;;;;4.35;3.75;;;13.30;97.70;;;;;;5057628;28;20040;-74
2021/05/18 12:58:26;;;;;;;3.92;3.60;;;13.30;96.20;;;;;;5055555;28;20530;-74
2021/05/18 13:01:02;;;;;;;4.90;3.63;;;13.30;96.70;;;;;;5042169;28;20045;-74
2021/05/18 13:03:28;;;;;;;3.72;3.40;;;13.40;97.20;;;;;;5051433;28;20041;-74
2021/05/18 13:05:55;;;;;;;3.92;3.20;;;13.60;96.70;;;;;;5051319;28;20435;-74
2021/05/18 13:08:29;;;;;;;4.22;3.65;;;13.80;96.00;;;;;;5050872;28;20044;-74
2021/05/18 13:13:56;;;;;;;5.00;4.60;;;13.90;95.20;;;;;;5055859;28;20040;-74
2021/05/18 13:16:33;;;;;;;4.18;3.78;;;14.10;95.50;;;;;;5053196;28;20118;-74
2021/05/18 13:19:02;;;;;;;4.38;3.83;;;14.10;95.40;;;;;;5050285;28;20039;-74
2021/05/18 13:21:34;;;;;;;8.35;4.90;;;14.20;95.60;;;;;;5049545;28;20040;-74
2021/05/18 13:26:30;;;;;;;5.55;5.03;;;14.30;96.00;;;;;;5050599;28;20116;-74
2021/05/18 13:29:02;;;;;;;5.10;4.60;;;14.40;96.10;;;;;;5054485;28;20127;-74
2021/05/18 13:31:30;;;;;;;5.47;4.88;;;14.50;96.40;;;;;;5053650;28;20086;-74
2021/05/18 13:33:57;;;;;;;7.13;4.97;;;14.50;96.40;;;;;;5053002;28;20566;-74
2021/05/18 13:36:31;;;;;;;7.10;5.55;;;14.60;97.00;;;;;;5045684;28;20111;-74
2021/05/18 13:38:57;;;;;;;5.65;5.15;;;14.70;97.10;;;;;;5048365;28;20159;-74
2021/05/18 13:41:23;;;;;;;7.18;4.70;;;15.00;95.80;;;;;;5048872;28;20051;-74
2021/05/18 13:43:48;;;;;;;5.40;4.90;;;15.30;95.20;;;;;;5047207;28;20076;-75
2021/05/18 13:46:14;;;;;;;5.40;4.90;;;15.60;94.70;;;;;;5047362;28;20120;-74
2021/05/18 13:48:40;;;;;;;4.72;4.32;;;15.80;94.40;;;;;;5048977;28;20032;-75
2021/05/18 13:51:10;;;;;;;4.50;4.10;;;15.90;93.20;;;;;;5050112;28;20102;-75
2021/05/18 13:53:35;;;;;;;5.20;4.80;;;15.80;93.40;;;;;;5048588;28;20037;-75
2021/05/18 13:56:02;;;;;;;6.38;4.78;;;15.70;93.70;;;;;;5049366;28;20074;-74
2021/05/18 13:58:28;;;;;;;5.40;4.95;;;15.60;93.70;;;;;;5049591;28;20040;-74
2021/05/18 14:00:54;;;;;;;5.35;4.85;;;15.60;94.20;;;;;;5052629;28;20529;-75
2021/05/18 14:03:20;;;;;;;5.50;5.00;;;15.70;94.60;;;;;;5049396;28;20104;-75
2021/05/18 14:05:45;;;;;;;5.25;4.75;;;15.90;94.30;;;;;;5049717;28;21645;-75
2021/05/18 14:08:25;;;;;;;4.82;4.45;;;16.00;94.60;;;;;;5050192;28;20024;-74
2021/05/18 14:10:54;;;;;;;5.70;4.90;;;16.10;93.50;;;;;;5049292;28;20443;-75
2021/05/18 14:13:21;;;;;;;4.97;4.43;;;16.20;93.40;;;;;;5053034;28;20805;-75
2021/05/18 14:15:47;;;;;;;7.00;5.10;;;16.40;93.70;;;;;;5049313;28;20037;-75
2021/05/18 14:18:13;;;;;;;6.60;4.80;;;16.50;94.00;;;;;;5049224;28;20037;-74
2021/05/18 14:20:40;;;;;;;6.55;4.57;;;16.50;94.20;;;;;;5049534;28;20146;-74
2021/05/18 14:23:06;;;;;;;6.38;4.95;;;16.50;94.20;;;;;;5048893;28;20048;-74
2021/05/18 14:25:33;;;;;;;4.63;4.28;;;16.40;94.60;;;;;;5048248;28;20969;-74
2021/05/18 14:27:59;;;;;;;4.57;4.07;;;16.20;94.30;;;;;;5047906;28;20043;-74
2021/05/18 14:30:26;;;;;;;5.15;3.95;;;16.20;94.60;;;;;;5049988;28;20197;-75
2021/05/18 14:32:52;;;;;;;3.85;3.55;;;16.10;94.50;;;;;;5049341;28;20041;-74
2021/05/18 14:35:17;;;;;;;6.35;4.22;;;16.00;94.50;;;;;;5049755;28;20044;-75
2021/05/18 14:37:47;;;;;;;4.95;3.70;;;15.90;94.30;;;;;;5051090;28;20065;-75
2021/05/18 14:45:28;;;;;;;6.97;3.40;;;15.50;94.10;;;;;;5048331;28;20077;-74
2021/05/18 14:55:49;;;;;;;5.20;4.70;;;15.20;94.80;;;;;;5052748;28;20048;-75
2021/05/18 14:58:15;;;;;;;5.85;5.22;;;15.00;94.00;;;;;;5052822;28;20032;-74
2021/05/18 15:00:43;;;;;;;6.10;5.43;;;14.90;94.60;;;;;;5051289;28;20044;-74
2021/05/18 15:03:09;;;;;;;7.18;5.32;;;14.90;95.30;;;;;;5053542;28;20055;-75
2021/05/18 15:05:36;;;;;;;9.20;5.68;;;14.80;95.20;;;;;;5053693;28;20063;-75
2021/05/18 15:08:02;;;;;;;7.43;5.60;;;14.90;96.10;;;;;;5052334;28;20075;-74
2021/05/18 15:10:28;;;;;;;7.97;5.38;;;14.80;96.60;;;;;;5054638;28;20037;-74
2021/05/18 15:12:55;;;;;;;6.50;5.90;;;14.80;96.80;;;;;;5051952;28;20079;-74
2021/05/18 15:15:21;;;;;;;7.65;5.85;;;14.70;96.70;;;;;;5051878;28;20033;-74
2021/05/18 15:17:47;;;;;;;7.53;5.07;;;14.60;97.20;;;;;;5053713;28;21450;-74
2021/05/18 15:20:13;;;;;;;5.93;5.35;;;14.60;97.20;;;;;;5052274;28;20057;-73
2021/05/18 15:22:39;;;;;;;5.65;5.15;;;14.50;97.10;;;;;;5051280;28;20048;-74
2021/05/18 15:25:07;;;;;;;6.93;5.88;;;14.50;97.20;;;;;;5051642;28;20640;-73
2021/05/18 15:27:33;;;;;;;6.97;6.25;;;14.40;96.70;;;;;;5050600;28;20045;-74
2021/05/18 15:29:59;;;;;;;8.38;7.28;;;14.30;97.00;;;;;;5050856;28;20129;-74
2021/05/18 15:32:26;;;;;;;7.13;6.53;;;14.20;97.40;;;;;;5051952;28;20075;-74
2021/05/18 15:34:52;;;;;;;7.88;6.03;;;14.10;97.40;;;;;;5055146;28;20106;-74
2021/05/18 15:37:18;;;;;;;6.85;6.03;;;14.00;97.30;;;;;;5053115;28;20048;-74
2021/05/18 15:39:44;;;;;;;10.18;6.95;;;13.90;97.60;;;;;;5051663;28;20047;-74
2021/05/18 15:42:10;;;;;;;6.47;5.90;;;13.90;97.60;;;;;;5051636;28;20086;-74
2021/05/18 15:44:36;;;;;;;5.25;4.85;;;13.80;97.50;;;;;;5054412;28;20040;-74
2021/05/18 15:47:04;;;;;;;6.30;5.00;;;13.80;96.50;;;;;;5053186;28;20849;-74
2021/05/18 15:49:31;;;;;;;7.40;5.97;;;13.60;96.00;;;;;;5052609;28;20145;-74
2021/05/18 15:51:58;;;;;;;5.13;4.70;;;13.50;97.00;;;;;;5051080;28;20196;-74
2021/05/18 15:54:27;;;;;;;5.78;5.25;;;13.40;97.00;;;;;;5047710;28;20036;-74
2021/05/18 15:56:53;;;;;;;5.80;5.07;;;13.30;97.00;;;;;;5050486;28;22147;-74
2021/05/18 15:59:19;;;;;;;5.72;5.10;;;13.30;97.00;;;;;;5055429;28;20036;-73
2021/05/18 16:01:45;;;;;;;5.78;5.25;;;13.20;97.20;;;;;;5054585;28;20056;-74
2021/05/18 16:04:11;;;;;;;6.55;5.78;;;13.20;97.20;;;;;;5055625;28;20059;-74
2021/05/18 16:06:40;;;;;;;7.13;6.10;;;13.30;97.70;;;;;;5052694;28;20044;-74
2021/05/18 16:09:11;;;;;;;7.47;5.47;;;13.20;97.70;;;;;;5052850;28;20043;-74
2021/05/18 16:11:37;;;;;;;5.30;4.78;;;13.20;97.90;;;;;;5051171;28;20041;-73
2021/05/18 16:14:04;;;;;;;6.60;5.75;;;13.20;97.90;;;;;;5051982;28;20430;-73
2021/05/18 16:16:30;;;;;;;7.93;5.75;;;13.10;98.10;;;;;;5056757;28;20081;-72
2021/05/18 16:18:56;;;;;;;7.05;5.75;;;13.00;98.40;;;;;;5055172;28;20041;-74
2021/05/18 16:21:24;;;;;;;8.10;5.68;;;13.00;98.80;;;;;;5053884;28;20068;-74
2021/05/18 16:23:51;;;;;;;7.15;5.05;;;13.10;98.90;;;;;;5051114;28;20082;-74
2021/05/18 16:26:20;;;;;;;5.93;5.35;;;13.00;98.70;;;;;;5051456;28;20055;-73
2021/05/18 16:28:46;;;;;;;6.65;6.05;;;13.10;98.40;;;;;;5053334;28;20051;-74
2021/05/18 16:31:12;;;;;;;10.63;6.38;;;13.10;98.60;;;;;;5052450;28;20070;-74
2021/05/18 16:33:40;;;;;;;7.85;5.88;;;13.20;98.90;;;;;;5058645;28;20490;-73
2021/05/18 16:36:07;;;;;;;6.25;5.57;;;13.40;99.00;;;;;;5052613;28;20033;-73
2021/05/18 16:38:34;;;;;;;6.30;5.47;;;13.50;97.60;;;;;;5054156;28;20044;-74
2021/05/18 16:40:59;;;;;;;7.65;5.72;;;13.50;97.40;;;;;;5053349;28;20124;-74
2021/05/18 16:43:27;;;;;;;6.90;5.80;;;13.60;97.80;;;;;;5053362;28;20491;-74
2021/05/18 16:45:54;;;;;;;7.13;6.00;;;13.60;97.80;;;;;;5052410;28;20495;-73
2021/05/18 16:48:21;;;;;;;5.70;5.20;;;13.70;98.10;;;;;;5051320;28;20418;-74
2021/05/18 16:50:47;;;;;;;5.07;4.68;;;13.70;98.30;;;;;;5053984;28;20036;-74
2021/05/18 16:53:14;;;;;;;6.57;5.63;;;13.80;98.10;;;;;;5053014;28;20425;-74
2021/05/18 16:55:41;;;;;;;6.63;5.93;;;13.80;97.50;;;;;;5052312;28;20075;-74
2021/05/18 16:58:07;;;;;;;6.50;5.80;;;13.80;97.80;;;;;;5051133;28;20650;-74
2021/05/18 17:00:33;;;;;;;5.68;5.13;;;13.90;98.00;;;;;;5058340;28;20032;-74
2021/05/18 17:03:01;;;;;;;5.05;4.57;;;14.00;98.00;;;;;;5052525;28;20056;-74
2021/05/18 17:05:27;;;;;;;5.82;5.20;;;14.10;97.80;;;;;;5053431;28;20053;-74
2021/05/18 17:07:54;;;;;;;6.68;6.13;;;14.10;96.30;;;;;;5052906;28;20056;-75
2021/05/18 17:10:22;;;;;;;6.18;5.10;;;14.10;96.60;;;;;;5058987;28;20048;-74
2021/05/18 17:12:52;;;;;;;6.20;5.70;;;14.00;96.40;;;;;;5062774;28;20041;-74
2021/05/18 17:15:19;;;;;;;6.28;5.75;;;13.90;96.80;;;;;;5060306;28;20029;-75
2021/05/18 17:17:45;;;;;;;6.05;5.45;;;13.90;97.00;;;;;;5060404;28;20045;-74
2021/05/18 17:20:12;;;;;;;6.70;5.75;;;13.90;96.50;;;;;;5060806;28;20040;-74
2021/05/18 17:22:39;;;;;;;6.20;5.60;;;13.80;96.80;;;;;;5052681;28;20056;-75
2021/05/18 17:25:08;;;;;;;7.30;6.00;;;13.80;97.30;;;;;;5053455;28;20044;-74
2021/05/18 17:27:35;;;;;;;15.98;6.13;;;13.80;97.60;;;;;;5052011;28;20048;-75
2021/05/18 17:30:04;;;;;;;7.57;5.93;;;13.70;97.40;;;;;;5055259;28;20449;-74
2021/05/18 17:32:29;;;;;;;6.53;5.85;;;13.70;97.80;;;;;;5052066;28;20391;-74
2021/05/18 17:34:55;;;;;;;6.10;5.38;;;13.70;98.10;;;;;;5054476;28;20067;-74
2021/05/18 17:37:21;;;;;;;6.30;5.70;;;13.70;98.30;;;;;;5055611;28;20075;-74
2021/05/18 17:39:47;;;;;;;6.85;6.25;;;13.70;98.20;;;;;;5053361;28;20044;-74
2021/05/18 17:42:15;;;;;;;7.47;6.78;;;13.70;98.20;;;;;;5078405;27;20068;-75
2021/05/18 17:44:41;;;;;;;10.18;9.18;;;13.70;98.30;;;;;;5051350;28;20805;-74
2021/05/18 17:47:07;;;;;;;12.63;10.73;;;13.70;98.00;;;;;;5052574;28;20170;-74
2021/05/18 17:49:33;;;;;;;14.88;11.55;;;13.70;98.00;;;;;;5051923;28;20032;-74
2021/05/18 17:52:01;;;;;;;12.00;10.80;;;13.80;98.30;;;;;;5048424;28;20056;-74
2021/05/18 17:54:27;;;;;;;12.35;11.15;;;13.80;98.00;;;;;;5049656;28;20927;-74
2021/05/18 17:56:53;;;;;;;12.77;10.18;;;13.80;98.20;;;;;;5047553;28;20502;-74
2021/05/18 17:59:18;;;;;;;12.95;11.60;;;13.80;98.40;;;;;;5053360;28;20037;-74
2021/05/18 18:01:44;;;;;;;11.38;10.27;;;13.80;98.70;;;;;;5053354;28;20082;-74
2021/05/18 18:04:11;;;;;;;14.07;11.13;;;13.90;99.00;;;;;;5052651;28;20098;-74
2021/05/18 18:06:37;;;;;;;8.00;7.30;;;13.90;99.20;;;;;;5051836;28;20040;-74